Home > Products > Valid Products > TAF

000
FTUS42 KCAE 281400 AAA
TAFCUB
TAF AMD
KCUB 281456Z 2815/2912 01008KT P6SM SKC
     FM281700 VRB03KT P6SM SKC=



000
FTUS42 KCAE 281400 AAA
TAFCAE
TAF AMD
KCAE 281456Z 2815/2912 01008KT P6SM SKC
     FM281700 VRB04KT P6SM SKC=



000
FTUS42 KCAE 281400 AAA
TAFAGS
TAF AMD
KAGS 281456Z 2815/2912 36006KT P6SM SKC
     FM281700 VRB04KT P6SM SKC=



000
FTUS42 KCAE 281400 AAA
TAFDNL
TAF AMD
KDNL 281456Z 2815/2912 36006KT P6SM SKC
     FM281700 VRB04KT P6SM SKC=



000
FTUS42 KCAE 281400 AAA
TAFOGB
TAF AMD
KOGB 281456Z 2815/2912 01007KT P6SM SKC
     FM281700 VRB04KT P6SM SKC=



000
FTUS42 KCAE 281100
TAFCAE
TAF
KCAE 281126Z 2812/2912 VRB04KT P6SM SKC
     FM281400 01008KT P6SM SKC
     FM281700 VRB04KT P6SM SKC=



000
FTUS42 KCAE 281100
TAFDNL
TAF
KDNL 281126Z 2812/2912 VRB04KT P6SM SKC
     FM281400 36006KT P6SM SKC
     FM281700 VRB04KT P6SM SKC=



000
FTUS42 KCAE 281100
TAFOGB
TAF
KOGB 281126Z 2812/2912 VRB04KT P6SM SKC
     FM281400 01007KT P6SM SKC
     FM281700 VRB04KT P6SM SKC=



000
FTUS42 KCAE 281100
TAFAGS
TAF
KAGS 281126Z 2812/2912 VRB04KT P6SM SKC
     FM281400 36006KT P6SM SKC
     FM281700 VRB04KT P6SM SKC=



000
FTUS42 KCAE 281100
TAFCUB
TAF
KCUB 281126Z 2812/2912 VRB04KT P6SM SKC
     FM281400 01008KT P6SM SKC
     FM281700 VRB03KT P6SM SKC=



000
FTUS42 KCAE 280800 AAA
TAFAGS
TAF AMD
KAGS 280836Z 2809/2906 VRB04KT P6SM SKC
     FM281400 01008KT P6SM SKC
     FM281700 VRB04KT P6SM SKC=



000
FTUS42 KCAE 280800 AAA
TAFCAE
TAF AMD
KCAE 280836Z 2809/2906 VRB04KT P6SM SKC
     FM281400 01008KT P6SM SKC
     FM281800 VRB04KT P6SM SKC=



000
FTUS42 KCAE 280800 AAA
TAFDNL
TAF AMD
KDNL 280836Z 2809/2906 VRB04KT P6SM SKC
     FM281400 01008KT P6SM SKC
     FM281700 VRB04KT P6SM SKC=



000
FTUS42 KCAE 280800 AAA
TAFOGB
TAF AMD
KOGB 280836Z 2809/2906 VRB04KT P6SM SKC
     FM281400 01008KT P6SM SKC
     FM281800 VRB04KT P6SM SKC=



000
FTUS42 KCAE 280800 AAA
TAFCUB
TAF AMD
KCUB 280836Z 2809/2906 VRB04KT P6SM SKC
     FM281400 01008KT P6SM SKC
     FM281800 VRB03KT P6SM SKC=



000
FTUS42 KCAE 280500
TAFOGB
TAF
KOGB 280525Z 2806/2906 33005KT P6SM SKC
     FM280900 VRB04KT P6SM SKC
     FM281400 01008KT P6SM SKC
     FM281800 VRB04KT P6SM SKC=



000
FTUS42 KCAE 280500
TAFCUB
TAF
KCUB 280525Z 2806/2906 32005KT P6SM SKC
     FM280700 VRB03KT P6SM SKC
     FM281400 01008KT P6SM SKC
     FM281800 VRB03KT P6SM SKC=



000
FTUS42 KCAE 280500
TAFAGS
TAF
KAGS 280525Z 2806/2906 31008KT P6SM SKC
     FM280800 VRB04KT P6SM SKC
     FM281400 01008KT P6SM SKC
     FM281700 VRB04KT P6SM SKC=



000
FTUS42 KCAE 280500
TAFCAE
TAF
KCAE 280525Z 2806/2906 31007KT P6SM SKC
     FM280900 VRB04KT P6SM SKC
     FM281400 01008KT P6SM SKC
     FM281800 VRB04KT P6SM SKC=



000
FTUS42 KCAE 280500
TAFDNL
TAF
KDNL 280525Z 2806/2906 31008KT P6SM SKC
     FM280900 VRB04KT P6SM SKC
     FM281400 01008KT P6SM SKC
     FM281700 VRB04KT P6SM SKC=



000
FTUS42 KCAE 280300 AAA
TAFCUB
TAF AMD
KCUB 280312Z 2803/2824 31005KT P6SM SKC
     FM280700 VRB03KT P6SM SKC
     FM281400 01008KT P6SM SKC
     FM281800 VRB03KT P6SM SKC=



000
FTUS42 KCAE 280300 AAA
TAFOGB
TAF AMD
KOGB 280312Z 2803/2824 31007KT P6SM SKC
     FM280900 32004KT P6SM SKC
     FM281400 01010KT P6SM SKC
     FM281800 VRB04KT P6SM SKC=



000
FTUS42 KCAE 280300 AAA
TAFCAE
TAF AMD
KCAE 280312Z 2803/2824 31007KT P6SM SKC
     FM280900 32004KT P6SM SKC
     FM281400 01010KT P6SM SKC
     FM281800 VRB04KT P6SM SKC=



000
FTUS42 KCAE 280300 AAA
TAFAGS
TAF AMD
KAGS 280312Z 2803/2824 31008KT P6SM SKC
     FM280800 32004KT P6SM SKC
     FM281400 01010KT P6SM SKC
     FM281800 VRB04KT P6SM SKC=



000
FTUS42 KCAE 280300 AAA
TAFDNL
TAF AMD
KDNL 280312Z 2803/2824 31008KT P6SM SKC
     FM280900 32004KT P6SM SKC
     FM281400 01010KT P6SM SKC
     FM281800 VRB04KT P6SM SKC=



000
FTUS42 KCAE 272300
TAFDNL
TAF
KDNL 272326Z 2800/2824 30010KT P6SM SKC
     FM280900 32004KT P6SM SKC
     FM281400 01010KT P6SM SKC
     FM281800 VRB04KT P6SM SKC=



000
FTUS42 KCAE 272300
TAFOGB
TAF
KOGB 272326Z 2800/2824 30010KT P6SM SKC
     FM280900 32004KT P6SM SKC
     FM281400 01010KT P6SM SKC
     FM281800 VRB04KT P6SM SKC=



000
FTUS42 KCAE 272300
TAFCAE
TAF
KCAE 272326Z 2800/2824 30010KT P6SM SKC
     FM280900 32004KT P6SM SKC
     FM281400 01010KT P6SM SKC
     FM281800 VRB04KT P6SM SKC=



000
FTUS42 KCAE 272300
TAFAGS
TAF
KAGS 272326Z 2800/2824 30010KT P6SM SKC
     FM280800 32004KT P6SM SKC
     FM281400 01010KT P6SM SKC
     FM281800 VRB04KT P6SM SKC=



000
FTUS42 KCAE 272300
TAFCUB
TAF
KCUB 272326Z 2800/2824 30008KT P6SM SKC
     FM280700 VRB03KT P6SM SKC
     FM281400 01008KT P6SM SKC
     FM281800 VRB03KT P6SM SKC=



000
FTUS42 KCAE 272000 AAB
TAFCAE
TAF AMD
KCAE 272059Z 2721/2818 30014G24KT P6SM FEW060
     FM272300 32008KT P6SM SKC
     FM280900 VRB04KT P6SM SKC=



000
FTUS42 KCAE 272000 AAA
TAFAGS
TAF AMD
KAGS 272059Z 2721/2818 31016G26KT P6SM FEW060
     FM272300 32007KT P6SM SKC
     FM280900 VRB03KT P6SM SKC=



000
FTUS42 KCAE 272000 AAA
TAFDNL
TAF AMD
KDNL 272059Z 2721/2818 31014G24KT P6SM FEW060
     FM272300 32008KT P6SM SKC
     FM280900 VRB04KT P6SM SKC=



000
FTUS42 KCAE 272000 AAA
TAFCUB
TAF AMD
KCUB 272059Z 2721/2818 30010G18KT P6SM SCT060
     FM272300 32006KT P6SM SKC
     FM280900 VRB03KT P6SM SKC=



000
FTUS42 KCAE 272000 AAB
TAFOGB
TAF AMD
KOGB 272059Z 2721/2818 30014G24KT P6SM SCT060
     FM272300 32008KT P6SM SKC
     FM280900 VRB03KT P6SM SKC=



000
FTUS42 KCAE 271900 AAA
TAFOGB
TAF AMD
KOGB 271923Z 2719/2818 32016G22KT P6SM SCT050
     FM272300 32007KT P6SM SKC
     FM280500 VRB03KT P6SM SKC=



000
FTUS42 KCAE 271900 AAA
TAFCAE
TAF AMD
KCAE 271922Z 2719/2818 31015G20KT P6SM SCT050
     FM272300 32007KT P6SM SKC
     FM280600 VRB04KT P6SM SKC=



000
FTUS42 KCAE 271700
TAFCAE
TAF
KCAE 271724Z 2718/2818 31015G25KT P6SM SCT050
     FM272300 32007KT P6SM SKC
     FM280600 VRB04KT P6SM SKC=



000
FTUS42 KCAE 271700
TAFOGB
TAF
KOGB 271724Z 2718/2818 31016G26KT P6SM SCT050
     FM272300 32007KT P6SM SKC
     FM280500 VRB03KT P6SM SKC=



000
FTUS42 KCAE 271700
TAFAGS
TAF
KAGS 271724Z 2718/2818 31015G25KT P6SM SCT050
     FM272300 32007KT P6SM SKC
     FM280700 VRB03KT P6SM SKC=



000
FTUS42 KCAE 271700
TAFCUB
TAF
KCUB 271724Z 2718/2818 30015G22KT P6SM SCT050
     FM272300 32006KT P6SM SKC
     FM280400 VRB03KT P6SM SKC=



000
FTUS42 KCAE 271700
TAFDNL
TAF
KDNL 271724Z 2718/2818 31015G26KT P6SM SCT050
     FM272300 32007KT P6SM SKC
     FM280600 VRB04KT P6SM SKC=



000
FTUS42 KCAE 271300 AAA
TAFAGS
TAF AMD
KAGS 271310Z 2713/2812 30015G25KT P6SM FEW050
     FM272300 32009KT P6SM SKC
     FM280700 33003KT P6SM SKC=



000
FTUS42 KCAE 271300 AAA
TAFCAE
TAF AMD
KCAE 271309Z 2713/2812 29015G25KT P6SM SCT050
     FM272300 31008KT P6SM SKC
     FM280600 32004KT P6SM SKC=



000
FTUS42 KCAE 271300 AAA
TAFCUB
TAF AMD
KCUB 271309Z 2713/2812 29015G22KT P6SM FEW050
     FM272300 32006KT P6SM SKC
     FM280400 32003KT P6SM SKC=



000
FTUS42 KCAE 271200 AAA
TAFDNL
TAF AMD
KDNL 271240Z 2713/2812 30015G22KT P6SM SCT050
     FM272300 31008G15KT P6SM SKC
     FM280600 33005KT P6SM SKC=



000
FTUS42 KCAE 271100
TAFOGB
TAF
KOGB 271138Z 2712/2812 24010KT P6SM SKC
     FM271400 29016G25KT P6SM SCT050
     FM272300 32007KT P6SM SKC
     FM280500 34003KT P6SM SKC=



000
FTUS42 KCAE 271100
TAFCUB
TAF
KCUB 271138Z 2712/2812 25009KT P6SM SKC
     FM271400 29014G22KT P6SM SCT050
     FM272300 32006KT P6SM SKC
     FM280400 32003KT P6SM SKC=



000
FTUS42 KCAE 271100
TAFAGS
TAF
KAGS 271138Z 2712/2812 27010KT P6SM SKC
     FM271400 30017G27KT P6SM SCT050
     FM272300 32009KT P6SM SKC
     FM280700 33003KT P6SM SKC=



000
FTUS42 KCAE 271100
TAFCAE
TAF
KCAE 271138Z 2712/2812 25010KT P6SM SKC
     FM271400 29015G25KT P6SM SCT050
     FM272300 31008KT P6SM SKC
     FM280600 32004KT P6SM SKC=



000
FTUS42 KCAE 271100
TAFDNL
TAF
KDNL 271138Z 2712/2812 27009KT P6SM SKC
     FM271400 30015G22KT P6SM SCT050
     FM272300 31008G15KT P6SM SKC
     FM280600 33005KT P6SM SKC=



000
FTUS42 KCAE 270500
TAFCUB
TAF
KCUB 270539Z 2706/2806 24004KT P6SM SCT070
     FM271100 26010KT P6SM SKC
     FM271500 29014G22KT P6SM SCT050
     FM272300 32004KT P6SM SKC=



000
FTUS42 KCAE 270500
TAFDNL
TAF
KDNL 270539Z 2706/2806 23006KT P6SM SCT080
     FM271100 27009G16KT P6SM SKC
     FM271500 30014G22KT P6SM SCT050
     FM272300 31008KT P6SM SKC=



000
FTUS42 KCAE 270500
TAFOGB
TAF
KOGB 270539Z 2706/2806 23005KT P6SM SCT080
     FM271100 25011KT P6SM SKC
     FM271500 29016G25KT P6SM SCT050
     FM272300 32005KT P6SM SKC=



000
FTUS42 KCAE 270500
TAFCAE
TAF
KCAE 270539Z 2706/2806 24006KT P6SM SCT070
     FM271100 25011KT P6SM SKC
     FM271500 29015G24KT P6SM SCT050
     FM272300 31006KT P6SM SKC=



000
FTUS42 KCAE 270500
TAFAGS
TAF
KAGS 270539Z 2706/2806 23005KT P6SM SCT080
     FM271100 28011KT P6SM SKC
     FM271500 30016G26KT P6SM SCT050
     FM272300 32006KT P6SM SKC=



000
FTUS42 KCAE 270200 AAA
TAFDNL
TAF AMD
KDNL 270243Z 2703/2724 25007KT P6SM SCT070
     FM271400 29014G24KT P6SM SCT050
     FM272300 32005KT P6SM SKC=



000
FTUS42 KCAE 270200 AAA
TAFOGB
TAF AMD
KOGB 270243Z 2703/2724 24006KT P6SM SCT070
     FM271400 28012G22KT P6SM SCT050
     FM272300 32005KT P6SM SKC=



000
FTUS42 KCAE 270200 AAA
TAFCUB
TAF AMD
KCUB 270243Z 2703/2724 24006KT P6SM SCT070
     FM271400 29012G22KT P6SM SCT050
     FM272300 32004KT P6SM SKC=



000
FTUS42 KCAE 270200 AAA
TAFCAE
TAF AMD
KCAE 270243Z 2703/2724 24006KT P6SM SCT070
     FM271400 29012G22KT P6SM SCT050
     FM272300 32005KT P6SM SKC=



000
FTUS42 KCAE 270200 AAA
TAFAGS
TAF AMD
KAGS 270243Z 2703/2724 25007KT P6SM SCT070
     FM271400 29014G24KT P6SM SCT050
     FM272300 32005KT P6SM SKC=



000
FTUS42 KCAE 262300
TAFOGB
TAF
KOGB 262322Z 2700/2724 24006KT P6SM SCT080
     FM271400 28012G22KT P6SM SCT050
     FM272300 32005KT P6SM SKC=



000
FTUS42 KCAE 262300
TAFAGS
TAF
KAGS 262322Z 2700/2724 25007KT P6SM SCT080
     FM271400 29014G24KT P6SM SCT050
     FM272300 32005KT P6SM SKC=



000
FTUS42 KCAE 262300
TAFCAE
TAF
KCAE 262322Z 2700/2724 24006KT P6SM SCT080
     FM271400 29012G22KT P6SM SCT050
     FM272300 32005KT P6SM SKC=



000
FTUS42 KCAE 262300
TAFDNL
TAF
KDNL 262322Z 2700/2724 25007KT P6SM SCT080
     FM271400 29014G24KT P6SM SCT050
     FM272300 32005KT P6SM SKC=



000
FTUS42 KCAE 262300
TAFCUB
TAF
KCUB 262322Z 2700/2724 24006KT P6SM SCT080
     FM271400 29012G22KT P6SM SCT050
     FM272300 32004KT P6SM SKC=



000
FTUS42 KCAE 262200 AAD
TAFOGB
TAF AMD
KOGB 262203Z 2622/2718 24006KT P6SM SCT080
     FM271400 28012G22KT P6SM SCT050=



000
FTUS42 KCAE 262200 AAD
TAFDNL
TAF AMD
KDNL 262203Z 2622/2718 25007KT P6SM SCT080
     FM271400 29014G24KT P6SM SCT050=



000
FTUS42 KCAE 262200 AAA
TAFCAE
TAF AMD
KCAE 262203Z 2622/2718 24006KT P6SM SCT080
     FM271400 29012G22KT P6SM SCT050=



000
FTUS42 KCAE 262200 AAD
TAFCUB
TAF AMD
KCUB 262203Z 2622/2718 24006KT P6SM SCT080
     FM271400 29012G22KT P6SM SCT050=



000
FTUS42 KCAE 262200 AAD
TAFDNL
TAF AMD
KDNL 262203Z 2622/2718 25007KT P6SM SCT080
     FM271400 29014G24KT P6SM SCT050=



000
FTUS42 KCAE 262200 AAD
TAFAGS
TAF AMD
KAGS 262203Z 2622/2718 25007KT P6SM SCT080
     FM271400 29014G24KT P6SM SCT050=



000
FTUS42 KCAE 262200 AAD
TAFOGB
TAF AMD
KOGB 262203Z 2622/2718 24006KT P6SM SCT080
     FM271400 28012G22KT P6SM SCT050=



000
FTUS42 KCAE 262200 AAD
TAFCUB
TAF AMD
KCUB 262203Z 2622/2718 24006KT P6SM SCT080
     FM271400 29012G22KT P6SM SCT050=



000
FTUS42 KCAE 262200 AAA
TAFCAE
TAF AMD
KCAE 262203Z 2622/2718 24006KT P6SM SCT080
     FM271400 29012G22KT P6SM SCT050=



000
FTUS42 KCAE 262200 AAD
TAFAGS
TAF AMD
KAGS 262203Z 2622/2718 25007KT P6SM SCT080
     FM271400 29014G24KT P6SM SCT050=



000
FTUS42 KCAE 262100 AAD
TAFCAE
TAF AMD
KCAE 262114Z 2621/2718 27006KT P6SM SCT040
     FM270700 24006KT P6SM SKC
     FM271400 29012G22KT P6SM SCT050=



000
FTUS42 KCAE 262100 AAC
TAFDNL
TAF AMD
KDNL 262114Z 2621/2718 28006KT P6SM SCT040
     FM270600 25007KT P6SM SKC
     FM271400 29014G24KT P6SM SCT050=



000
FTUS42 KCAE 262100 AAC
TAFCUB
TAF AMD
KCUB 262114Z 2621/2718 27006KT P6SM SCT040
     FM270700 24006KT P6SM SKC
     FM271400 29012G22KT P6SM SCT050=



000
FTUS42 KCAE 262100 AAC
TAFAGS
TAF AMD
KAGS 262114Z 2621/2718 28008KT P6SM SCT040
     FM270600 25007KT P6SM SKC
     FM271400 29014G24KT P6SM SCT050=



000
FTUS42 KCAE 262100 AAC
TAFOGB
TAF AMD
KOGB 262114Z 2621/2718 29005KT P6SM SCT040
     FM270700 24006KT P6SM SKC
     FM271400 28012G22KT P6SM SCT050=



000
FTUS42 KCAE 261900 AAC
TAFCAE
TAF AMD
KCAE 261945Z 2620/2718 30010KT P6SM BKN035
     FM262300 27006KT P6SM SCT060 SCT250
     FM270700 24006KT P6SM SKC
     FM271400 29012KT P6SM SCT100=



000
FTUS42 KCAE 261900 AAB
TAFCUB
TAF AMD
KCUB 261932Z 2620/2718 33010KT P6SM BKN035
     FM262300 27006KT P6SM SCT060 SCT250
     FM270700 24006KT P6SM SKC
     FM271400 29012KT P6SM SCT100=



000
FTUS42 KCAE 261900 AAB
TAFCAE
TAF AMD
KCAE 261932Z 2620/2718 30010G18KT P6SM BKN035
     FM262300 27006KT P6SM SCT060 SCT250
     FM270700 24006KT P6SM SKC
     FM271400 29012KT P6SM SCT100=



000
FTUS42 KCAE 261800 AAB
TAFDNL
TAF AMD
KDNL 261859Z 2619/2718 33010KT P6SM BKN035
     FM262200 28006KT P6SM SCT060 SCT250
     FM270600 25007KT P6SM SKC
     FM271400 29014G24KT P6SM SKC=



000
FTUS42 KCAE 261800 AAB
TAFOGB
TAF AMD
KOGB 261859Z 2619/2718 31008KT P6SM OVC035
     FM262300 29005KT P6SM SCT060 SCT250
     FM270700 24006KT P6SM SKC
     FM271400 28012KT P6SM SCT080=



000
FTUS42 KCAE 261800 AAB
TAFAGS
TAF AMD
KAGS 261859Z 2619/2718 33010KT P6SM BKN035
     FM262200 28006KT P6SM SCT060 SCT250
     FM270600 25007KT P6SM SKC
     FM271400 29014G24KT P6SM SKC=



000
FTUS42 KCAE 261700 AAA
TAFAGS
TAF AMD
KAGS 261749Z 2618/2718 33010KT P6SM BKN020
     FM262200 28006KT P6SM SCT060 SCT250
     FM270600 25007KT P6SM SKC
     FM271400 29014G24KT P6SM SKC=



000
FTUS42 KCAE 261700 AAA
TAFCAE
TAF AMD
KCAE 261749Z 2618/2718 30010G18KT P6SM BKN035
     FM262300 27006KT P6SM SCT060 SCT250
     FM270700 24006KT P6SM SKC
     FM271400 29012KT P6SM SCT100=



000
FTUS42 KCAE 261700 AAA
TAFCUB
TAF AMD
KCUB 261749Z 2618/2718 33010KT P6SM BKN035
     FM262300 27006KT P6SM SCT060 SCT250
     FM270700 24006KT P6SM SKC
     FM271400 29012KT P6SM SCT100=



000
FTUS42 KCAE 261700 AAA
TAFDNL
TAF AMD
KDNL 261749Z 2618/2718 33010KT P6SM BKN020
     FM262200 28006KT P6SM SCT060 SCT250
     FM270600 25007KT P6SM SKC
     FM271400 29014G24KT P6SM SKC=



000
FTUS42 KCAE 261700 AAA
TAFOGB
TAF AMD
KOGB 261749Z 2618/2718 31008KT P6SM OVC025
     FM262300 29005KT P6SM SCT060 SCT250
     FM270700 24006KT P6SM SKC
     FM271400 28012KT P6SM SCT080=



000
FTUS42 KCAE 261700
TAFCUB
TAF
KCUB 261720Z 2618/2718 33010KT P6SM BKN035
     FM262300 27006KT P6SM SCT060 SCT250
     FM270700 24006KT P6SM SKC=



000
FTUS42 KCAE 261700
TAFDNL
TAF
KDNL 261720Z 2618/2718 33010KT P6SM BKN020
     FM262200 28006KT P6SM SCT060 SCT250
     FM270600 25007KT P6SM SKC=



000
FTUS42 KCAE 261700
TAFOGB
TAF
KOGB 261720Z 2618/2718 31008KT P6SM OVC025
     FM262300 29005KT P6SM SCT060 SCT250
     FM270700 24006KT P6SM SKC=



000
FTUS42 KCAE 261700
TAFCAE
TAF
KCAE 261720Z 2618/2718 30010G18KT P6SM BKN035
     FM262300 27006KT P6SM SCT060 SCT250
     FM270700 24006KT P6SM SKC=



000
FTUS42 KCAE 261700
TAFAGS
TAF
KAGS 261720Z 2618/2718 33010KT P6SM BKN020
     FM262200 28006KT P6SM SCT060 SCT250
     FM270600 25007KT P6SM SKC=



000
FTUS42 KCAE 261500 AAA
TAFCAE
TAF AMD
KCAE 261557Z 2616/2712 33010KT P6SM SCT015 BKN060
     FM261700 30010G18KT P6SM BKN040
     FM262300 27006KT P6SM SCT060 SCT250
     FM270700 24006KT P6SM SKC=



000
FTUS42 KCAE 261500 AAB
TAFCUB
TAF AMD
KCUB 261557Z 2616/2712 33010KT P6SM SCT015 BKN060
     FM261700 30010G18KT P6SM BKN040
     FM262300 27006KT P6SM SCT060 SCT250
     FM270700 24006KT P6SM SKC=



000
FTUS42 KCAE 261500 AAC
TAFAGS
TAF AMD
KAGS 261547Z 2616/2712 33010KT P6SM BKN015 OVC080
     FM261700 32012G20KT P6SM BKN040
     FM262200 28006KT P6SM SCT060 SCT250
     FM270600 25007KT P6SM SKC=



000
FTUS42 KCAE 261500 AAE
TAFDNL
TAF AMD
KDNL 261547Z 2616/2712 33010KT P6SM BKN015 OVC080
     FM261700 32012G20KT P6SM BKN040
     FM262200 28006KT P6SM SCT060 SCT250
     FM270600 25007KT P6SM SKC=



000
FTUS42 KCAE 261400 AAD
TAFDNL
TAF AMD
KDNL 261449Z 2615/2712 33010KT P6SM SCT005 OVC080
      TEMPO 2615/2616 BKN005
     FM261600 32012G20KT P6SM BKN040
     FM262200 28006KT P6SM SCT060 SCT250
     FM270600 25007KT P6SM SKC=



000
FTUS42 KCAE 261400 AAB
TAFAGS
TAF AMD
KAGS 261447Z 2615/2712 33010KT P6SM SCT015 OVC080
     FM261600 32012G20KT P6SM BKN040
     FM262200 28006KT P6SM SCT060 SCT250
     FM270600 25007KT P6SM SKC=



000
FTUS42 KCAE 261400 AAC
TAFDNL
TAF AMD
KDNL 261447Z 2615/2712 33010KT P6SM SCT015 OVC080
     FM261600 32012G20KT P6SM BKN040
     FM262200 28006KT P6SM SCT060 SCT250
     FM270600 25007KT P6SM SKC=



000
FTUS42 KCAE 261400 AAA
TAFCUB
TAF AMD
KCUB 261440Z 2615/2712 33010KT P6SM -RA SCT015 OVC035
     FM261600 30010G18KT P6SM BKN040
     FM262300 27006KT P6SM SCT060 SCT250
     FM270700 24006KT P6SM SKC=



000
FTUS42 KCAE 261400 AAA
TAFAGS
TAF AMD
KAGS 261440Z 2615/2712 33010KT P6SM VCSH SCT015 OVC080
     FM261600 32012G20KT P6SM BKN040
     FM262200 28006KT P6SM SCT060 SCT250
     FM270600 25007KT P6SM SKC=



000
FTUS42 KCAE 261400 AAB
TAFCAE
TAF AMD
KCAE 261440Z 2615/2712 33010KT P6SM -RA SCT015 OVC035
     FM261600 30010G18KT P6SM BKN040
     FM262300 27006KT P6SM SCT060 SCT250
     FM270700 24006KT P6SM SKC=



000
FTUS42 KCAE 261400 AAB
TAFDNL
TAF AMD
KDNL 261440Z 2615/2712 33010KT P6SM VCSH SCT015 OVC080
     FM261600 32012G20KT P6SM BKN040
     FM262200 28006KT P6SM SCT060 SCT250
     FM270600 25007KT P6SM SKC=



000
FTUS42 KCAE 261400 AAA
TAFOGB
TAF AMD
KOGB 261440Z 2615/2712 03006KT P6SM -RA SCT015 OVC040
     FM261600 31012G20KT P6SM OVC040
     FM262300 29005KT P6SM SCT060 SCT250
     FM270700 24006KT P6SM SKC=



000
FTUS42 KCAE 261200 AAA
TAFCAE
TAF AMD
KCAE 261259Z 2613/2712 VRB05KT 4SM -RA BR BKN015 OVC040
     FM261400 33010G20KT 5SM -RA BR OVC025
     FM261500 29010G18KT P6SM OVC040
     FM262300 27006KT P6SM SCT060 SCT250
     FM270700 24006KT P6SM SKC=



000
FTUS42 KCAE 261200 CCA
TAFDNL
TAF COR
KDNL 261250Z 2613/2712 33011KT P6SM -RA SCT007 OVC035
      TEMPO 2613/2614 4SM BR BKN007
     FM261500 30010G18KT P6SM BKN040
     FM262200 25006KT P6SM SCT060 SCT250
     FM270600 25007KT P6SM SKC=



000
FTUS42 KCAE 261200 AAA
TAFDNL
TAF AMD
KDNL 261249Z 2613/2712 33011KT 5SM -RA BR SCT007 OVC035
      TEMPO 2613/2614 BKN007
     FM261500 30010G18KT P6SM BKN040
     FM262200 25006KT P6SM SCT060 SCT250
     FM270600 25007KT P6SM SKC=



000
FTUS42 KCAE 261100 RRA
TAFOGB
TAF
KOGB 261142Z 2612/2712 34010G20KT 4SM RA BR BKN010 OVC040
     FM261400 33012G20KT 5SM -RA BR OVC025
     FM261600 31012G20KT P6SM OVC040
     FM262300 29005KT P6SM SCT060 SCT250
     FM270700 24006KT P6SM SKC=



000
FTUS42 KCAE 261100 RRA
TAFAGS
TAF
KAGS 261142Z 2612/2712 33010KT 4SM -RA BR SCT010 OVC035
     FM261500 32012G20KT P6SM BKN040
     FM262200 28006KT P6SM SCT060 SCT250
     FM270600 25007KT P6SM SKC=



000
FTUS42 KCAE 261100 RRA
TAFCUB
TAF
KCUB 261142Z 2612/2712 34008KT 3SM RA BR BKN009 OVC025
     FM261300 34010G16KT 5SM -RA BR OVC015
     FM261500 30008G15KT P6SM OVC040
     FM262300 26004KT P6SM SCT060 SCT250
     FM270700 24005KT P6SM SKC=



000
FTUS42 KCAE 261100 RRA
TAFDNL
TAF
KDNL 261142Z 2612/2712 34011KT 5SM -RA BR SCT007 OVC035
     FM261500 30010G18KT P6SM BKN040
     FM262200 25006KT P6SM SCT060 SCT250
     FM270600 25007KT P6SM SKC=



000
FTUS42 KCAE 261100 RRA
TAFCAE
TAF
KCAE 261142Z 2612/2712 34010KT 4SM RA BR BKN009 OVC025
     FM261300 33010G20KT 5SM -RA BR OVC015
     FM261500 29010G18KT P6SM OVC040
     FM262300 27006KT P6SM SCT060 SCT250
     FM270700 24006KT P6SM SKC=



000
FTUS42 KCAE 261000 AAB
TAFDNL
TAF AMD
KDNL 261002Z 2610/2706 32011KT 5SM RA BR BKN005 OVC010
     FM261400 31011G18KT P6SM -RA OVC015
     FM261600 30012G20KT P6SM BKN040
     FM262300 25006KT P6SM SCT060 SCT250=



000
FTUS42 KCAE 261000 AAB
TAFDNL
TAF AMD
KDNL 261002Z 2610/2706 32011KT 5SM RA BR BKN005 OVC010
     FM261400 31011G18KT P6SM -RA OVC015
     FM261600 30012G20KT P6SM BKN040
     FM262300 25006KT P6SM SCT060 SCT250=



000
FTUS42 KCAE 260800 AAA
TAFOGB
TAF AMD
KOGB 260835Z 2609/2706 34009KT 3SM RA BR BKN007 OVC010
     FM261400 31012G20KT 4SM -RA OVC015
     FM261800 29010G18KT P6SM OVC040
     FM270000 27005KT P6SM SCT060 SCT250=



000
FTUS42 KCAE 260800 AAA
TAFDNL
TAF AMD
KDNL 260835Z 2609/2706 31011KT 5SM RA BR BKN004 OVC025
     FM261000 31011KT 3SM -RA BR OVC015
     FM261400 31011G18KT 4SM -RA BR OVC025
     FM261600 30012G20KT P6SM BKN040
     FM262300 25006KT P6SM SCT060 SCT250=



000
FTUS42 KCAE 260800 AAA
TAFAGS
TAF AMD
KAGS 260835Z 2609/2706 32012KT 4SM RA BR BKN007 OVC025
     FM261000 33012KT 3SM -RA BR OVC015
     FM261400 31012G18KT 4SM -RA BR OVC025
     FM261600 30014G22KT P6SM BKN040
     FM262300 27006KT P6SM SCT060 SCT250=



000
FTUS42 KCAE 260800 AAA
TAFCUB
TAF AMD
KCUB 260835Z 2609/2706 33008KT 3SM RA BR BKN009 OVC025
     FM261100 31010G16KT 5SM -RA BR OVC015
     FM261700 29008G15KT P6SM OVC040
     FM270000 26004KT P6SM SCT060 SCT250=



000
FTUS42 KCAE 260800 AAA
TAFCAE
TAF AMD
KCAE 260835Z 2609/2706 33010KT 4SM RA BR BKN009 OVC025
     FM261100 31012G20KT 5SM -RA BR OVC015
     FM261700 29010G18KT P6SM OVC040
     FM270000 26006KT P6SM SCT060 SCT250=



000
FTUS42 KCAE 260500
TAFOGB
TAF
KOGB 260538Z 2606/2706 35008KT 3SM -RA BR BKN006 OVC015
     FM261400 31012G20KT 4SM -RA OVC015
     FM261800 29010G18KT P6SM OVC040
     FM270000 27005KT P6SM SCT060 SCT250=



000
FTUS42 KCAE 260500
TAFDNL
TAF
KDNL 260538Z 2606/2706 33011KT P6SM -RA BKN007 OVC025
     FM260800 33011KT 3SM -RA BR OVC015
     FM261400 31011G18KT 4SM -RA BR OVC025
     FM261600 31012G20KT P6SM BKN040
     FM262300 25006KT P6SM SCT060 SCT250=



000
FTUS42 KCAE 260500
TAFAGS
TAF
KAGS 260538Z 2606/2706 33012KT P6SM -RA SCT010 OVC025
     FM260800 33012KT 3SM -RA BR OVC015
     FM261400 31012G18KT 4SM -RA BR OVC025
     FM261600 31014G22KT P6SM BKN040
     FM262300 27006KT P6SM SCT060 SCT250=



000
FTUS42 KCAE 260500
TAFCAE
TAF
KCAE 260538Z 2606/2706 33008KT 4SM -RA BR SCT006 OVC015
     FM261100 31012G20KT 5SM -RA BR OVC015
     FM261700 29010G18KT P6SM OVC040
     FM270000 26006KT P6SM SCT060 SCT250=



000
FTUS42 KCAE 260500
TAFCUB
TAF
KCUB 260538Z 2606/2706 33006KT 3SM -RA BR SCT007 OVC015
     FM261100 31010G16KT 5SM -RA BR OVC015
     FM261700 29008G15KT P6SM OVC040
     FM270000 26004KT P6SM SCT060 SCT250=



000
FTUS42 KCAE 260500 AAA
TAFAGS
TAF AMD
KAGS 260506Z 2605/2624 33012KT P6SM -RA SCT010 OVC025
     FM260800 33012KT 3SM -RA BR OVC015
     FM261400 31012G18KT 4SM -RA BR OVC025
     FM261700 31014G21KT P6SM BKN040=



000
FTUS42 KCAE 260500 AAA
TAFDNL
TAF AMD
KDNL 260505Z 2605/2624 33010KT P6SM -RA BKN007 OVC025
     FM260800 33011KT 3SM -RA BR OVC015
     FM261400 31012G18KT 4SM -RA BR OVC025
     FM261700 31014G21KT P6SM BKN040=



000
FTUS42 KCAE 260200 AAB
TAFOGB
TAF AMD
KOGB 260259Z 2603/2624 VRB05KT 4SM -RA BR BKN007 OVC015
     FM260500 35008KT 3SM -RA BR OVC007
     FM261500 32012G18KT 4SM -RA OVC015
     FM261700 32012G20KT P6SM OVC040=



000
FTUS42 KCAE 260200 AAB
TAFCUB
TAF AMD
KCUB 260258Z 2603/2624 VRB04KT 5SM -RA BR SCT008 OVC015
      TEMPO 2603/2605 3SM -RA BR BKN007
     FM260500 35006KT 3SM -RA BR OVC007
     FM261400 31010G15KT 5SM -RA BR OVC015
     FM261700 30010G15KT P6SM OVC040=



000
FTUS42 KCAE 260200 AAB
TAFCAE
TAF AMD
KCAE 260257Z 2603/2624 VRB05KT 5SM -RA BR SCT008 OVC025
      TEMPO 2603/2605 3SM -RA BR BKN008
     FM260500 35008KT 3SM -RA BR OVC007
     FM261400 31012G15KT 5SM -RA BR OVC015
     FM261700 30012G19KT P6SM OVC040=



000
FTUS42 KCAE 260200 AAA
TAFCUB
TAF AMD
KCUB 260229Z 2602/2624 VRB04KT P6SM VCSH SCT035 OVC090
      TEMPO 2603/2605 4SM -RA BR BKN010
     FM260500 35006KT 4SM -RA BR OVC007
     FM261400 31010G15KT 5SM -RA BR OVC015
     FM261700 30010G15KT P6SM OVC040=



000
FTUS42 KCAE 260200 AAA
TAFCAE
TAF AMD
KCAE 260228Z 2602/2624 VRB05KT P6SM VCSH SCT035 OVC090
      TEMPO 2602/2604 4SM -RA BR BKN025
     FM260400 35006KT 4SM -RA BR OVC025
     FM260700 33010KT 3SM -RA BR OVC007
     FM261400 31012G15KT 5SM -RA BR OVC015
     FM261700 30012G19KT P6SM OVC040=



000
FTUS42 KCAE 260100 AAA
TAFOGB
TAF AMD
KOGB 260144Z 2602/2624 VRB05KT 6SM BR VCSH BKN015 OVC035
      TEMPO 2602/2605 4SM -RA BR BKN009
     FM260500 35008KT 4SM -RA BR OVC007
     FM261500 32012G18KT 4SM -RA OVC015
     FM261700 32012G20KT P6SM OVC040=



000
FTUS42 KCAE 252300
TAFCAE
TAF
KCAE 252336Z 2600/2624 VRB05KT P6SM VCSH SCT035 OVC090
      TEMPO 2602/2604 4SM -RA BR
     FM260400 35006KT 4SM -RA BR OVC025
     FM260700 33010KT 3SM -RA BR OVC007
     FM261400 31012G15KT 5SM -RA BR OVC015
     FM261700 30012G19KT P6SM OVC040=



000
FTUS42 KCAE 252300
TAFDNL
TAF
KDNL 252336Z 2600/2624 VRB04KT P6SM -RA SCT035 OVC090
      TEMPO 2602/2604 4SM -RA BR
     FM260400 34004KT 4SM -RA BR OVC025
     FM260600 33012KT 3SM -RA BR OVC015
     FM261400 31012G18KT 4SM -RA BR OVC025
     FM261700 31014G21KT P6SM BKN040=



000
FTUS42 KCAE 252300
TAFCUB
TAF
KCUB 252336Z 2600/2624 VRB04KT P6SM VCSH SCT035 OVC090
      TEMPO 2600/2604 4SM -RA BR
     FM260400 35006KT 4SM -RA BR OVC025
     FM260700 33010KT 3SM -RA BR OVC007
     FM261400 31010G15KT 5SM -RA BR OVC015
     FM261700 30010G15KT P6SM OVC040=



000
FTUS42 KCAE 252300
TAFAGS
TAF
KAGS 252336Z 2600/2624 VRB04KT P6SM VCSH SCT035 OVC090
      TEMPO 2602/2604 4SM -RA BR
     FM260400 34004KT 4SM -RA BR OVC025
     FM260600 33012KT 3SM -RA BR OVC015
     FM261400 31012G18KT 4SM -RA BR OVC025
     FM261700 31014G21KT P6SM BKN040=



000
FTUS42 KCAE 252300
TAFOGB
TAF
KOGB 252336Z 2600/2624 VRB05KT 6SM BR VCSH SCT035 OVC080
      TEMPO 2602/2604 4SM -RA BR BKN025
     FM260400 36004KT 4SM -RA BR OVC015
     FM260700 35010KT 4SM -RA BR OVC007
     FM261500 32012G18KT 4SM -RA OVC015
     FM261700 32012G20KT P6SM OVC040=



000
FTUS42 KCAE 252100 AAA
TAFAGS
TAF AMD
KAGS 252135Z 2522/2618 VRB04KT P6SM -RA SCT035 OVC090
     FM260200 34004KT 4SM -RA BR OVC025
     FM260600 33010KT 3SM -RA BR OVC015
     FM261400 31009KT 4SM -RA BR OVC025
     FM261700 31010KT P6SM BKN040=



000
FTUS42 KCAE 252100 AAA
TAFDNL
TAF AMD
KDNL 252135Z 2522/2618 VRB04KT P6SM -RA SCT035 OVC090
     FM260200 34004KT 4SM -RA BR OVC025
     FM260600 33010KT 3SM -RA BR OVC015
     FM261400 31009KT 4SM -RA BR OVC025
     FM261700 31010KT P6SM BKN040=



000
FTUS42 KCAE 252100 AAA
TAFOGB
TAF AMD
KOGB 252134Z 2522/2618 VRB05KT P6SM -RA SCT030 OVC080
     FM260100 36004KT 4SM -RA BR OVC015
     FM260500 35010KT 4SM -RA BR OVC004
     FM261500 32008KT 4SM -RA OVC015
     FM261700 32007KT P6SM OVC025=



000
FTUS42 KCAE 252100 AAA
TAFCUB
TAF AMD
KCUB 252134Z 2522/2618 VRB04KT P6SM -RA SCT035 OVC090
     FM260200 35006KT 4SM -RA BR OVC015
     FM260700 33010KT 3SM -RA BR OVC007
     FM261400 31009KT 5SM -RA BR OVC015
     FM261700 30010KT P6SM OVC035=



000
FTUS42 KCAE 252100 AAA
TAFCAE
TAF AMD
KCAE 252133Z 2522/2618 VRB05KT P6SM VCSH SCT035 OVC090
     FM260200 35006KT 4SM -RA BR OVC015
     FM260700 33010KT 3SM -RA BR OVC007
     FM261400 31009KT 5SM -RA BR OVC015
     FM261700 30010KT P6SM OVC035=



000
FTUS42 KCAE 251700
TAFCAE
TAF
KCAE 251728Z 2518/2618 VRB04KT P6SM -RA OVC035
     FM252000 32004KT P6SM VCSH OVC025
     FM260200 35006KT 4SM -RA BR OVC015
     FM260700 33010KT 3SM -RA BR OVC007
     FM261400 31009KT 5SM -RA BR OVC015
     FM261700 30010KT P6SM OVC035=



000
FTUS42 KCAE 251700
TAFCUB
TAF
KCUB 251728Z 2518/2618 VRB04KT P6SM -RA OVC035
     FM252000 32004KT P6SM VCSH OVC025
     FM260200 35006KT 4SM -RA BR OVC015
     FM260700 33010KT 3SM -RA BR OVC007
     FM261400 31009KT 5SM -RA BR OVC015
     FM261700 30010KT P6SM OVC035=



000
FTUS42 KCAE 251700
TAFOGB
TAF
KOGB 251728Z 2518/2618 VRB05KT 4SM -RA BR SCT030 OVC080
     FM251900 30004KT P6SM -RA OVC035
     FM260100 36004KT 4SM -RA BR OVC015
     FM260500 35010KT 4SM -RA BR OVC004
     FM261500 32008KT 4SM -RA OVC015
     FM261700 32007KT P6SM OVC025=



000
FTUS42 KCAE 251700
TAFAGS
TAF
KAGS 251728Z 2518/2618 31005KT P6SM VCSH SCT025 OVC100
     FM260200 34004KT 4SM -RA BR OVC025
     FM260600 33010KT 3SM -RA BR OVC015
     FM261400 31009KT 4SM -RA BR OVC025
     FM261700 31010KT P6SM BKN040=



000
FTUS42 KCAE 251700
TAFDNL
TAF
KDNL 251728Z 2518/2618 31005KT P6SM VCSH SCT025 OVC100
     FM260200 34004KT 4SM -RA BR OVC025
     FM260600 33010KT 3SM -RA BR OVC015
     FM261400 31009KT 4SM -RA BR OVC025
     FM261700 31010KT P6SM BKN040=



    US Dept of Commerce
    National Oceanic and Atmospheric Administration
    National Weather Service
    1325 East West Highway
    Silver Spring, MD 20910
    Page Author: NWS Internet Services Team
Disclaimer
Information Quality
Credits
Glossary
Privacy Policy
Freedom of Information Act (FOIA)
About Us
Career Opportunities